Detall de PIREP

Printer-friendly versionPDF version

[2009/08/09 13:19:00]
Flight IATA:CT2113
Pilot Number:041
Company ICAO:CAT
Aircraft Type:AT72/F
PAX:48
Departing Airport: LEZL
Destination Airport: LEVC
Alternate Airport:LEAL
Online: VATSIM
Route:MAR1R G5 BLN R47 YES B28 XEBAR B28 POBOS B28 ASTRO1J
Flight Level:FL180
No Slew and time accel
No pause
Crash detect
Detect pilot in Cockpit between each 30 and 45 minutes
13:19 Zero fuel Weight: 39805 Lbs, Fuel Weight: 4479 Lbs
13:19 VATSIM:LEZL 091300Z 23005KT 160V290 CAVOK 28/14 Q1012 NOSIG
13:19 VATSIM:LEVC 091300Z 08009KT 030V120 9999 FEW016 SCT024 26/22 Q1013 NOSIG
13:20 VOICE CATALONIAN
13:23 Parking Brakes off
13:30 Take-off
13:30 Take off Weight: 44205 Lbs
13:30 Wind: 235º @ 004 Knots Heading: 089º
13:30 POS N37º 25´ 04´´ W005º 53´ 44´´
13:30 Gear Up: 136 Knots
13:30 Flaps:1 at 136 Knots
13:31 Flaps:0 at 172 Knots
13:45 Wind:233º@014 Knots Heading: 042º Ground
Speed: 259 Knots Altitude 11230 ft
13:51 TOC
13:51 Fuel Weight: 3671 Lb
14:00 Wind:243º@021 Knots Heading: 042º Ground Speed: 304 Knots Altitude 18028 ft
14:15 Wind:243º@016 Knots Heading: 050º Ground Speed: 304 Knots Altitude 18008 ft
14:19 TOD
14:19 Fuel Weight: 2748 Lb
14:30 Wind:200º@015 Knots Heading: 052º Ground Speed: 272 Knots Altitude 6246 ft
14:41 Flaps:1 at 168 Knots
14:41 Gear Down: 147 Knots
14:42 Flaps:2 at 133 Knots
14:44 TouchDown:Rate -73 ft/min Speed: 111 Knots
14:44 Flaps:0 at 79 Knots
14:44 VATSIM:LEVC 091430Z 09010KT 050V120 9999 FEW018 SCT024 27/22 Q1013 TEMPO SCT024TCU
14:44 Land
14:44 Wind:083º@008 Knots
14:44 Heading: 095º
14:44 Flight Duration: 01:14
14:44 Landing Weight: 42104 Lbs
14:44 POS N39º 29´ 21´´ W000º 28´ 53´´
14:46 Parking brakes on
14:46 Block to Block Duration: 01:23
14:46 Final Fuel: 2286 Lbls
14:46 Spent Fuel:
2193 Lbls
14:46 Flight Length: 329 NM
14:46 TOD Land Length: 102 NM

Exportar CSV

Powered by Drupal - Modified by Danger4k